createdAt,value
2023-01-01T00:00:16.040Z,389.01
2023-01-01T00:01:15.990Z,390.14
2023-01-01T00:02:16.103Z,387.44
2023-01-01T00:03:16.191Z,386.55
2023-01-01T00:04:16.286Z,384.78
2023-01-01T00:05:16.350Z,386.55
2023-01-01T00:06:22.414Z,388.11
2023-01-01T00:07:16.512Z,388.11
2023-01-01T00:08:16.600Z,389.69
2023-01-01T00:09:16.696Z,389.24
2023-01-01T00:10:16.752Z,388.34
2023-01-01T00:11:16.826Z,387.00
2023-01-01T00:12:16.901Z,384.56
2023-01-01T00:13:16.986Z,387.89
2023-01-01T00:14:17.206Z,388.56
2023-01-01T00:15:17.179Z,387.89
2023-01-01T00:16:17.288Z,389.69
2023-01-01T00:17:17.301Z,387.89
2023-01-01T00:18:17.384Z,387.44
2023-01-01T00:19:17.483Z,388.34
2023-01-01T00:20:17.563Z,388.79
2023-01-01T00:21:17.625Z,387.89
2023-01-01T00:22:52.571Z,388.34
2023-01-01T00:23:17.814Z,388.79
2023-01-01T00:24:17.872Z,389.01
2023-01-01T00:25:17.943Z,389.69
2023-01-01T00:26:18.032Z,387.00
2023-01-01T00:27:18.105Z,388.56
2023-01-01T00:28:18.185Z,387.22
2023-01-01T00:29:18.286Z,387.44
2023-01-01T00:30:18.382Z,388.79
2023-01-01T00:31:18.552Z,388.34
2023-01-01T00:32:22.690Z,387.44
2023-01-01T00:33:18.634Z,388.11
2023-01-01T00:34:18.710Z,387.22
2023-01-01T00:35:18.813Z,389.46
2023-01-01T00:36:18.913Z,390.14
2023-01-01T00:37:25.246Z,391.05
2023-01-01T00:38:19.052Z,390.14
2023-01-01T00:39:19.142Z,386.77
2023-01-01T00:40:19.225Z,387.00
2023-01-01T00:41:19.314Z,387.22
2023-01-01T00:42:19.388Z,389.01
2023-01-01T00:43:19.493Z,388.11
2023-01-01T00:44:19.547Z,389.69
2023-01-01T00:45:22.322Z,387.00
2023-01-01T00:46:19.733Z,387.89
2023-01-01T00:47:19.816Z,387.89
2023-01-01T00:48:19.900Z,388.11
2023-01-01T00:49:19.983Z,388.11
2023-01-01T00:50:20.073Z,388.56
2023-01-01T00:51:20.156Z,389.24
2023-01-01T00:52:20.253Z,389.46
2023-01-01T00:53:20.324Z,389.92
2023-01-01T00:54:20.408Z,389.01
2023-01-01T00:55:20.499Z,387.22
2023-01-01T00:56:20.542Z,387.44
2023-01-01T00:57:20.608Z,389.01
2023-01-01T00:58:20.706Z,387.22
2023-01-01T00:59:26.809Z,388.79
2023-01-01T01:00:20.878Z,389.01
2023-01-01T01:01:21.129Z,388.11
2023-01-01T01:02:21.156Z,386.77
2023-01-01T01:03:21.180Z,386.55
2023-01-01T01:04:21.205Z,387.67
2023-01-01T01:05:21.281Z,386.55
2023-01-01T01:06:21.341Z,388.56
2023-01-01T01:07:21.437Z,386.33
2023-01-01T01:08:30.904Z,387.44
2023-01-01T01:09:21.603Z,389.24
2023-01-01T01:10:21.678Z,390.60
2023-01-01T01:11:21.755Z,387.44
2023-01-01T01:12:21.865Z,387.67
2023-01-01T01:13:21.926Z,387.44
2023-01-01T01:14:22.003Z,387.22
2023-01-01T01:15:22.088Z,390.37
2023-01-01T01:16:22.235Z,388.56
2023-01-01T01:17:22.261Z,387.44
2023-01-01T01:18:22.373Z,387.67
2023-01-01T01:19:22.426Z,389.01
2023-01-01T01:20:22.518Z,389.24
2023-01-01T01:21:22.589Z,389.46
2023-01-01T01:22:27.966Z,387.00
2023-01-01T01:23:22.753Z,391.74
2023-01-01T01:24:22.821Z,390.14
2023-01-01T01:25:22.884Z,392.19
2023-01-01T01:26:22.964Z,390.37
2023-01-01T01:27:23.054Z,388.79
2023-01-01T01:28:23.124Z,387.22
2023-01-01T01:29:23.244Z,390.37
2023-01-01T01:30:23.294Z,389.92
2023-01-01T01:31:23.413Z,388.56
2023-01-01T01:32:23.457Z,388.56
2023-01-01T01:33:23.576Z,388.34
2023-01-01T01:34:27.855Z,389.24
2023-01-01T01:35:23.677Z,386.11
2023-01-01T01:36:23.775Z,389.46
2023-01-01T01:37:23.839Z,389.92
2023-01-01T01:38:23.914Z,390.60
2023-01-01T01:39:30.281Z,388.34
2023-01-01T01:40:24.092Z,390.14
2023-01-01T01:41:28.661Z,390.82
2023-01-01T01:42:24.283Z,387.44
2023-01-01T01:43:24.345Z,387.00
2023-01-01T01:44:24.418Z,388.56
2023-01-01T01:45:29.755Z,388.56
2023-01-01T01:46:24.657Z,388.11
2023-01-01T01:47:24.694Z,389.46
2023-01-01T01:48:24.777Z,389.24
2023-01-01T01:49:24.912Z,386.11
2023-01-01T01:50:24.980Z,388.79
2023-01-01T01:51:25.435Z,387.22
2023-01-01T01:52:25.148Z,389.69
2023-01-01T01:53:25.231Z,388.34
2023-01-01T01:54:25.302Z,392.42
2023-01-01T01:55:25.379Z,388.11
2023-01-01T01:56:25.461Z,389.01
2023-01-01T01:57:25.554Z,392.19
2023-01-01T01:58:25.616Z,387.22
2023-01-01T01:59:25.700Z,389.24
2023-01-01T02:00:25.777Z,388.11
2023-01-01T02:01:25.942Z,389.46
2023-01-01T02:02:26.251Z,389.92
2023-01-01T02:03:26.102Z,390.82
2023-01-01T02:04:26.073Z,389.01
2023-01-01T02:05:26.161Z,390.37
2023-01-01T02:06:26.245Z,389.46
2023-01-01T02:07:26.332Z,387.67
2023-01-01T02:08:26.415Z,388.56
2023-01-01T02:09:26.520Z,388.56
2023-01-01T02:10:32.546Z,390.14
2023-01-01T02:11:26.644Z,388.34
2023-01-01T02:12:26.735Z,388.79
2023-01-01T02:13:26.827Z,389.92
2023-01-01T02:14:26.894Z,385.66
2023-01-01T02:15:26.986Z,388.79
2023-01-01T02:16:27.049Z,387.22
2023-01-01T02:17:27.151Z,390.82
2023-01-01T02:18:27.225Z,390.60
2023-01-01T02:19:27.345Z,389.24
2023-01-01T02:20:27.414Z,389.24
2023-01-01T02:21:27.515Z,390.14
2023-01-01T02:22:27.572Z,390.82
2023-01-01T02:23:27.669Z,389.69
2023-01-01T02:24:27.725Z,391.28
2023-01-01T02:25:27.816Z,388.34
2023-01-01T02:26:27.908Z,390.60
2023-01-01T02:27:28.004Z,389.69
2023-01-01T02:28:28.055Z,390.14
2023-01-01T02:29:28.156Z,391.51
2023-01-01T02:30:28.242Z,387.67
2023-01-01T02:31:28.364Z,390.60
2023-01-01T02:32:28.372Z,390.14
2023-01-01T02:33:28.475Z,388.34
2023-01-01T02:34:28.561Z,391.05
2023-01-01T02:35:28.632Z,389.92
2023-01-01T02:36:28.741Z,389.24
2023-01-01T02:37:28.832Z,389.92
2023-01-01T02:38:28.911Z,391.28
2023-01-01T02:39:29.009Z,389.69
2023-01-01T02:40:29.090Z,391.51
2023-01-01T02:41:35.146Z,389.01
2023-01-01T02:42:29.229Z,387.67
2023-01-01T02:43:29.330Z,389.92
2023-01-01T02:44:29.423Z,388.56
2023-01-01T02:45:29.548Z,390.37
2023-01-01T02:46:29.605Z,390.60
2023-01-01T02:47:29.644Z,389.46
2023-01-01T02:48:29.724Z,389.69
2023-01-01T02:49:29.806Z,390.60
2023-01-01T02:50:29.892Z,387.44
2023-01-01T02:51:30.003Z,391.51
2023-01-01T02:52:30.074Z,388.34
2023-01-01T02:53:30.143Z,390.60
2023-01-01T02:54:30.222Z,389.69
2023-01-01T02:55:30.302Z,391.28
2023-01-01T02:56:30.385Z,390.14
2023-01-01T02:57:30.482Z,389.69
2023-01-01T02:58:30.546Z,391.96
2023-01-01T02:59:30.620Z,389.46
2023-01-01T03:00:30.705Z,391.28
2023-01-01T03:01:30.841Z,390.14
2023-01-01T03:02:31.021Z,387.00
2023-01-01T03:03:30.951Z,390.60
2023-01-01T03:04:30.993Z,391.74
2023-01-01T03:05:31.069Z,391.51
2023-01-01T03:06:31.167Z,391.51
2023-01-01T03:07:31.265Z,389.69
2023-01-01T03:08:31.352Z,390.14
2023-01-01T03:09:31.450Z,391.51
2023-01-01T03:10:31.517Z,389.24
2023-01-01T03:11:31.604Z,389.92
2023-01-01T03:12:37.627Z,390.37
2023-01-01T03:13:31.752Z,390.37
2023-01-01T03:14:31.863Z,389.24
2023-01-01T03:15:31.965Z,390.37
2023-01-01T03:16:31.998Z,391.28
2023-01-01T03:17:32.082Z,392.19
2023-01-01T03:18:32.173Z,390.14
2023-01-01T03:19:32.243Z,390.14
2023-01-01T03:20:32.292Z,389.92
2023-01-01T03:21:32.389Z,390.60
2023-01-01T03:22:32.470Z,390.14
2023-01-01T03:23:32.564Z,392.42
2023-01-01T03:24:32.648Z,389.01
2023-01-01T03:25:32.751Z,392.19
2023-01-01T03:26:32.795Z,391.51
2023-01-01T03:27:32.866Z,391.05
2023-01-01T03:28:32.954Z,389.69
2023-01-01T03:29:33.041Z,388.79
2023-01-01T03:30:33.137Z,391.96
2023-01-01T03:31:33.276Z,391.74
2023-01-01T03:32:33.302Z,390.37
2023-01-01T03:33:33.372Z,390.60
2023-01-01T03:34:33.464Z,390.60
2023-01-01T03:35:33.546Z,390.60
2023-01-01T03:36:33.657Z,389.24
2023-01-01T03:37:33.712Z,391.51
2023-01-01T03:38:33.793Z,391.51
2023-01-01T03:39:33.859Z,391.51
2023-01-01T03:40:33.956Z,389.24
2023-01-01T03:41:34.030Z,391.96
2023-01-01T03:42:34.133Z,391.51
2023-01-01T03:43:40.180Z,389.46
2023-01-01T03:44:34.295Z,393.57
2023-01-01T03:45:34.360Z,389.92
2023-01-01T03:46:34.465Z,393.11
2023-01-01T03:47:34.560Z,392.88
2023-01-01T03:48:34.638Z,389.69
2023-01-01T03:49:34.727Z,392.42
2023-01-01T03:50:34.818Z,391.51
2023-01-01T03:51:34.883Z,392.65
2023-01-01T03:52:34.959Z,391.74
2023-01-01T03:53:35.065Z,393.80
2023-01-01T03:54:35.132Z,389.69
2023-01-01T03:55:35.206Z,391.74
2023-01-01T03:56:35.314Z,391.51
2023-01-01T03:57:35.406Z,391.96
2023-01-01T03:58:35.507Z,392.19
2023-01-01T03:59:35.545Z,392.88
2023-01-01T04:00:35.639Z,394.03
2023-01-01T04:01:35.790Z,390.82
2023-01-01T04:02:35.861Z,391.74
2023-01-01T04:03:35.881Z,393.80
2023-01-01T04:04:35.991Z,392.65
2023-01-01T04:05:36.041Z,389.92
2023-01-01T04:06:36.129Z,389.01
2023-01-01T04:07:36.206Z,391.51
2023-01-01T04:08:36.295Z,391.74
2023-01-01T04:09:36.377Z,389.46
2023-01-01T04:10:36.480Z,391.74
2023-01-01T04:11:36.556Z,393.11
2023-01-01T04:12:36.654Z,393.57
2023-01-01T04:13:36.722Z,391.96
2023-01-01T04:14:42.796Z,393.57
2023-01-01T04:15:36.863Z,390.37
2023-01-01T04:16:37.039Z,391.51
2023-01-01T04:17:37.025Z,392.42
2023-01-01T04:18:37.104Z,390.60
2023-01-01T04:19:37.203Z,392.42
2023-01-01T04:20:37.288Z,392.65
2023-01-01T04:21:37.379Z,394.03
2023-01-01T04:22:37.467Z,393.11
2023-01-01T04:23:37.521Z,391.28
2023-01-01T04:24:37.599Z,392.88
2023-01-01T04:25:37.720Z,392.42
2023-01-01T04:26:37.777Z,392.65
2023-01-01T04:27:37.868Z,392.88
2023-01-01T04:28:37.972Z,388.79
2023-01-01T04:29:38.049Z,391.05
2023-01-01T04:31:12.939Z,462.05
2023-01-01T04:32:14.011Z,452.11
2023-01-01T04:33:14.085Z,438.82
2023-01-01T04:34:14.189Z,435.97
2023-01-01T04:35:14.256Z,430.11
2023-01-01T04:36:14.341Z,429.01
2023-01-01T04:37:14.407Z,424.94
2023-01-01T04:38:14.481Z,421.74
2023-01-01T04:39:14.586Z,420.42
2023-01-01T04:40:14.669Z,420.94
2023-01-01T04:41:14.723Z,417.54
2023-01-01T04:42:14.822Z,415.22
2023-01-01T04:43:14.882Z,414.71
2023-01-01T04:44:14.981Z,414.20
2023-01-01T04:45:15.527Z,413.94
2023-01-01T04:46:15.254Z,412.16
2023-01-01T04:47:15.221Z,410.90
2023-01-01T04:48:15.296Z,408.65
2023-01-01T04:49:15.360Z,409.40
2023-01-01T04:50:15.455Z,408.90
2023-01-01T04:51:15.554Z,405.69
2023-01-01T04:52:15.645Z,407.91
2023-01-01T04:53:15.736Z,405.45
2023-01-01T04:54:15.837Z,403.98
2023-01-01T04:55:15.905Z,405.69
2023-01-01T04:56:15.991Z,404.71
2023-01-01T04:57:16.093Z,404.23
2023-01-01T04:58:16.186Z,404.23
2023-01-01T04:59:16.267Z,402.53
2023-01-01T05:00:16.327Z,403.26
2023-01-01T05:01:16.494Z,403.02
2023-01-01T05:02:22.871Z,401.81
2023-01-01T05:03:16.589Z,402.05
2023-01-01T05:04:16.676Z,403.74
2023-01-01T05:05:16.746Z,401.57
2023-01-01T05:06:16.824Z,400.37
2023-01-01T05:07:16.907Z,399.18
2023-01-01T05:08:17.007Z,400.85
2023-01-01T05:09:17.085Z,401.09
2023-01-01T05:10:17.171Z,399.42
2023-01-01T05:11:17.264Z,400.61
2023-01-01T05:12:17.319Z,398.24
2023-01-01T05:13:17.434Z,401.09
2023-01-01T05:14:17.508Z,400.61
2023-01-01T05:15:17.560Z,401.09
2023-01-01T05:16:17.708Z,399.90
2023-01-01T05:17:17.715Z,401.57
2023-01-01T05:18:17.819Z,402.05
2023-01-01T05:19:17.883Z,399.18
2023-01-01T05:20:18.001Z,397.06
2023-01-01T05:21:18.047Z,398.71
2023-01-01T05:22:18.141Z,396.36
2023-01-01T05:23:18.213Z,399.66
2023-01-01T05:24:18.307Z,398.95
2023-01-01T05:25:18.415Z,397.53
2023-01-01T05:26:18.496Z,397.53
2023-01-01T05:27:18.543Z,398.47
2023-01-01T05:28:18.616Z,395.66
2023-01-01T05:29:18.691Z,398.47
2023-01-01T05:30:18.771Z,398.24
2023-01-01T05:31:18.879Z,396.36
2023-01-01T05:32:53.810Z,468.83
2023-01-01T05:33:54.901Z,456.10
2023-01-01T05:34:54.988Z,448.78
2023-01-01T05:35:55.081Z,439.68
2023-01-01T05:36:55.159Z,438.53
2023-01-01T05:37:55.282Z,433.16
2023-01-01T05:38:55.334Z,431.49
2023-01-01T05:39:55.417Z,426.56
2023-01-01T05:40:55.495Z,425.21
2023-01-01T05:41:55.573Z,423.87
2023-01-01T05:42:55.671Z,422.27
2023-01-01T05:43:55.752Z,420.68
2023-01-01T05:44:55.837Z,415.22
2023-01-01T05:45:55.936Z,417.80
2023-01-01T05:46:56.004Z,416.51
2023-01-01T05:47:56.080Z,412.67
2023-01-01T05:48:56.204Z,412.67
2023-01-01T05:49:56.279Z,412.42
2023-01-01T05:50:56.338Z,410.90
2023-01-01T05:51:56.411Z,413.18
2023-01-01T05:52:56.494Z,411.41
2023-01-01T05:53:56.606Z,407.42
2023-01-01T05:54:56.658Z,410.90
2023-01-01T05:55:56.748Z,410.65
2023-01-01T05:56:56.829Z,409.40
2023-01-01T05:57:56.898Z,406.92
2023-01-01T05:58:56.973Z,407.91
2023-01-01T05:59:57.078Z,404.96
2023-01-01T06:00:57.162Z,407.42
2023-01-01T06:01:57.412Z,405.45
2023-01-01T06:02:57.336Z,407.42
2023-01-01T06:04:03.419Z,407.91
2023-01-01T06:04:57.514Z,405.94
2023-01-01T06:05:57.572Z,403.98
2023-01-01T06:06:57.653Z,404.96
2023-01-01T06:07:57.741Z,402.77
2023-01-01T06:08:57.803Z,406.67
2023-01-01T06:09:57.887Z,406.18
2023-01-01T06:10:58.004Z,403.26
2023-01-01T06:11:58.094Z,403.98
2023-01-01T06:12:58.150Z,401.57
2023-01-01T06:13:58.240Z,403.02
2023-01-01T06:14:58.310Z,401.09
2023-01-01T06:15:58.377Z,403.50
2023-01-01T06:16:58.504Z,400.61
2023-01-01T06:17:58.527Z,403.98
2023-01-01T06:18:58.608Z,400.61
2023-01-01T06:19:58.672Z,404.47
2023-01-01T06:20:58.769Z,400.37
2023-01-01T06:21:58.860Z,399.18
2023-01-01T06:22:58.943Z,404.47
2023-01-01T06:23:59.018Z,400.14
2023-01-01T06:24:59.082Z,401.81
2023-01-01T06:25:59.199Z,399.42
2023-01-01T06:26:59.275Z,399.66
2023-01-01T06:27:59.389Z,403.26
2023-01-01T06:28:59.474Z,402.77
2023-01-01T06:29:59.527Z,400.14
2023-01-01T06:30:59.641Z,399.66
2023-01-01T06:31:59.690Z,399.90
2023-01-01T06:32:59.787Z,401.33
2023-01-01T06:33:59.869Z,396.83
2023-01-01T06:35:05.958Z,400.85
2023-01-01T06:36:00.009Z,401.33
2023-01-01T06:37:04.740Z,401.57
2023-01-01T06:38:00.194Z,400.61
2023-01-01T06:39:00.262Z,399.42
2023-01-01T06:40:00.325Z,399.42
2023-01-01T06:41:00.424Z,401.33
2023-01-01T06:42:00.478Z,401.81
2023-01-01T06:43:00.585Z,399.90
2023-01-01T06:44:00.648Z,397.30
2023-01-01T06:45:00.752Z,399.18
2023-01-01T06:46:00.859Z,397.77
2023-01-01T06:47:00.896Z,400.61
2023-01-01T06:48:00.985Z,400.61
2023-01-01T06:49:01.113Z,400.85
2023-01-01T06:50:01.144Z,398.71
2023-01-01T06:51:01.210Z,400.85
2023-01-01T06:52:01.325Z,399.18
2023-01-01T06:53:01.380Z,400.14
2023-01-01T06:54:01.477Z,400.37
2023-01-01T06:55:01.553Z,397.53
2023-01-01T06:56:01.644Z,397.77
2023-01-01T06:57:01.735Z,397.06
2023-01-01T06:58:01.842Z,399.18
2023-01-01T06:59:01.868Z,400.61
2023-01-01T07:00:02.012Z,398.00
2023-01-01T07:01:07.884Z,400.14
2023-01-01T07:02:02.234Z,400.85
2023-01-01T07:03:02.452Z,398.71
2023-01-01T07:04:02.241Z,399.18
2023-01-01T07:05:02.328Z,400.14
2023-01-01T07:06:08.396Z,396.36
2023-01-01T07:07:02.477Z,397.77
2023-01-01T07:08:02.569Z,398.00
2023-01-01T07:09:02.618Z,397.53
2023-01-01T07:10:02.716Z,399.18
2023-01-01T07:11:02.775Z,400.14
2023-01-01T07:12:02.845Z,397.30
2023-01-01T07:13:02.915Z,397.53
2023-01-01T07:14:02.997Z,398.71
2023-01-01T07:15:03.089Z,398.95
2023-01-01T07:16:08.360Z,395.89
2023-01-01T07:17:03.275Z,399.66
2023-01-01T07:18:03.367Z,400.85
2023-01-01T07:19:03.453Z,399.42
2023-01-01T07:20:03.536Z,397.06
2023-01-01T07:21:03.604Z,397.53
2023-01-01T07:22:03.688Z,399.66
2023-01-01T07:23:03.773Z,400.14
2023-01-01T07:24:03.838Z,396.59
2023-01-01T07:25:03.919Z,398.71
2023-01-01T07:26:04.028Z,398.71
2023-01-01T07:27:04.092Z,398.24
2023-01-01T07:28:04.185Z,397.30
2023-01-01T07:29:07.812Z,397.06
2023-01-01T07:30:04.334Z,397.30
2023-01-01T07:31:04.429Z,399.42
2023-01-01T07:32:04.504Z,397.30
2023-01-01T07:33:04.572Z,396.83
2023-01-01T07:34:04.643Z,397.77
2023-01-01T07:35:04.725Z,395.66
2023-01-01T07:36:04.805Z,394.96
2023-01-01T07:37:11.000Z,397.30
2023-01-01T07:38:04.996Z,398.24
2023-01-01T07:39:05.083Z,398.24
2023-01-01T07:40:05.163Z,397.06
2023-01-01T07:41:05.260Z,397.30
2023-01-01T07:42:10.800Z,397.77
2023-01-01T07:43:05.438Z,398.47
2023-01-01T07:44:05.501Z,399.66
2023-01-01T07:45:05.588Z,396.83
2023-01-01T07:46:05.702Z,397.30
2023-01-01T07:47:05.733Z,400.85
2023-01-01T07:48:05.871Z,396.83
2023-01-01T07:49:05.908Z,397.30
2023-01-01T07:50:05.979Z,398.24
2023-01-01T07:51:06.030Z,400.37
2023-01-01T07:52:06.127Z,397.30
2023-01-01T07:53:06.230Z,396.83
2023-01-01T07:54:07.605Z,396.36
2023-01-01T07:55:06.351Z,397.30
2023-01-01T07:56:06.400Z,396.83
2023-01-01T07:57:06.475Z,398.47
2023-01-01T07:58:06.529Z,398.24
2023-01-01T07:59:06.629Z,396.36
2023-01-01T08:00:06.693Z,396.83
2023-01-01T08:01:06.788Z,395.66
2023-01-01T08:02:07.005Z,396.83
2023-01-01T08:03:06.989Z,398.47
2023-01-01T08:04:07.061Z,399.18
2023-01-01T08:05:07.146Z,398.47
2023-01-01T08:06:07.190Z,395.89
2023-01-01T08:07:07.286Z,398.47
2023-01-01T08:08:13.353Z,395.19
2023-01-01T08:09:07.455Z,398.24
2023-01-01T08:10:07.608Z,396.83
2023-01-01T08:11:07.616Z,396.36
2023-01-01T08:12:07.690Z,396.83
2023-01-01T08:13:07.775Z,399.66
2023-01-01T08:14:07.848Z,400.14
2023-01-01T08:15:07.955Z,397.06
2023-01-01T08:16:08.139Z,399.18
2023-01-01T08:17:08.109Z,397.06
2023-01-01T08:18:08.197Z,396.59
2023-01-01T08:19:08.395Z,399.42
2023-01-01T08:20:08.353Z,397.77
2023-01-01T08:21:08.479Z,397.53
2023-01-01T08:22:08.565Z,397.06
2023-01-01T08:23:08.647Z,395.19
2023-01-01T08:24:08.711Z,398.71
2023-01-01T08:25:08.805Z,399.90
2023-01-01T08:26:08.912Z,398.95
2023-01-01T08:27:08.984Z,398.47
2023-01-01T08:28:09.036Z,397.06
2023-01-01T08:29:09.108Z,397.06
2023-01-01T08:30:09.196Z,399.18
2023-01-01T08:31:09.325Z,396.83
2023-01-01T08:32:09.368Z,399.18
2023-01-01T08:33:09.471Z,398.00
2023-01-01T08:34:09.553Z,395.42
2023-01-01T08:35:09.626Z,399.18
2023-01-01T08:36:09.716Z,397.30
2023-01-01T08:37:09.805Z,397.53
2023-01-01T08:38:09.877Z,399.18
2023-01-01T08:39:16.026Z,399.66
2023-01-01T08:40:10.060Z,397.77
2023-01-01T08:41:10.143Z,398.00
2023-01-01T08:42:12.334Z,394.73
2023-01-01T08:43:10.313Z,397.06
2023-01-01T08:44:10.407Z,398.71
2023-01-01T08:45:10.577Z,398.00
2023-01-01T08:46:10.596Z,398.00
2023-01-01T08:47:10.643Z,397.30
2023-01-01T08:48:10.725Z,397.53
2023-01-01T08:49:10.820Z,398.24
2023-01-01T08:50:10.909Z,394.27
2023-01-01T08:51:11.010Z,397.77
2023-01-01T08:52:11.075Z,397.30
2023-01-01T08:53:11.157Z,396.83
2023-01-01T08:54:11.250Z,395.66
2023-01-01T08:55:11.309Z,398.00
2023-01-01T08:56:11.395Z,395.89
2023-01-01T08:57:11.513Z,394.96
2023-01-01T08:58:11.563Z,395.66
2023-01-01T08:59:11.645Z,397.06
2023-01-01T09:00:11.708Z,395.66
2023-01-01T09:01:11.843Z,393.80
2023-01-01T09:02:12.227Z,397.53
2023-01-01T09:03:12.188Z,397.30
2023-01-01T09:04:15.741Z,396.36
2023-01-01T09:05:12.122Z,395.19
2023-01-01T09:06:12.221Z,397.06
2023-01-01T09:07:12.300Z,398.47
2023-01-01T09:08:12.368Z,395.89
2023-01-01T09:09:12.460Z,397.06
2023-01-01T09:10:18.533Z,395.89
2023-01-01T09:11:12.635Z,398.00
2023-01-01T09:12:12.713Z,396.12
2023-01-01T09:13:12.793Z,394.27
2023-01-01T09:14:12.881Z,394.50
2023-01-01T09:15:12.977Z,396.36
2023-01-01T09:16:13.137Z,395.19
2023-01-01T09:17:13.135Z,398.24
2023-01-01T09:18:13.230Z,397.06
2023-01-01T09:19:13.290Z,396.59
2023-01-01T09:20:13.403Z,396.36
2023-01-01T09:21:13.498Z,395.66
2023-01-01T09:22:13.549Z,394.03
2023-01-01T09:23:13.633Z,397.53
2023-01-01T09:24:13.741Z,393.57
2023-01-01T09:25:13.831Z,397.06
2023-01-01T09:26:13.898Z,396.59
2023-01-01T09:27:13.992Z,395.19
2023-01-01T09:28:14.081Z,393.11
2023-01-01T09:29:14.163Z,395.66
2023-01-01T09:30:14.260Z,393.57
2023-01-01T09:31:14.375Z,394.96
2023-01-01T09:32:14.419Z,392.42
2023-01-01T09:33:14.515Z,394.50
2023-01-01T09:34:14.553Z,394.27
2023-01-01T09:35:14.644Z,391.74
2023-01-01T09:36:14.746Z,392.65
2023-01-01T09:37:14.825Z,392.88
2023-01-01T09:38:14.909Z,392.19
2023-01-01T09:39:15.007Z,394.03
2023-01-01T09:40:15.055Z,393.80
2023-01-01T09:41:21.106Z,391.28
2023-01-01T09:42:15.212Z,390.82
2023-01-01T09:43:15.288Z,391.51
2023-01-01T09:44:15.385Z,393.34
2023-01-01T09:45:15.495Z,391.74
2023-01-01T09:46:15.566Z,393.57
2023-01-01T09:47:15.596Z,390.82
2023-01-01T09:48:15.687Z,390.60
2023-01-01T09:49:15.766Z,392.65
2023-01-01T09:50:15.849Z,392.65
2023-01-01T09:51:15.942Z,391.05
2023-01-01T09:52:16.053Z,390.82
2023-01-01T09:53:16.108Z,389.46
2023-01-01T09:54:16.205Z,391.74
2023-01-01T09:55:16.288Z,391.74
2023-01-01T09:56:16.338Z,392.19
2023-01-01T09:57:20.018Z,389.01
2023-01-01T09:58:16.511Z,390.14
2023-01-01T09:59:16.608Z,389.92
2023-01-01T10:00:16.667Z,390.14
2023-01-01T10:01:17.597Z,389.46
2023-01-01T10:02:16.909Z,390.60
2023-01-01T10:03:16.948Z,391.51
2023-01-01T10:04:17.046Z,389.24
2023-01-01T10:05:17.104Z,387.22
2023-01-01T10:06:17.164Z,389.01
2023-01-01T10:07:17.258Z,390.37
2023-01-01T10:08:23.021Z,389.92
2023-01-01T10:09:17.415Z,390.37
2023-01-01T10:10:17.483Z,388.56
2023-01-01T10:11:17.547Z,389.92
2023-01-01T10:12:23.625Z,387.22
2023-01-01T10:13:17.727Z,389.46
2023-01-01T10:14:17.776Z,387.00
2023-01-01T10:15:17.852Z,389.46
2023-01-01T10:16:23.896Z,389.24
2023-01-01T10:17:18.018Z,390.37
2023-01-01T10:18:18.089Z,388.11
2023-01-01T10:19:18.193Z,389.24
2023-01-01T10:20:18.273Z,387.00
2023-01-01T10:21:18.351Z,387.22
2023-01-01T10:22:18.443Z,385.22
2023-01-01T10:23:18.505Z,389.46
2023-01-01T10:24:18.621Z,387.44
2023-01-01T10:25:18.700Z,386.77
2023-01-01T10:26:18.790Z,387.44
2023-01-01T10:27:18.888Z,386.55
2023-01-01T10:28:18.955Z,390.60
2023-01-01T10:29:19.043Z,391.28
2023-01-01T10:30:19.121Z,389.01
2023-01-01T10:31:19.224Z,385.44
2023-01-01T10:32:19.295Z,388.11
2023-01-01T10:33:19.379Z,387.22
2023-01-01T10:34:19.431Z,388.11
2023-01-01T10:35:20.465Z,388.34
2023-01-01T10:36:19.605Z,387.44
2023-01-01T10:37:19.695Z,388.79
2023-01-01T10:38:19.783Z,388.79
2023-01-01T10:39:19.863Z,389.01
2023-01-01T10:40:19.965Z,388.11
2023-01-01T10:41:20.388Z,388.11
2023-01-01T10:42:20.119Z,389.69
2023-01-01T10:43:26.174Z,389.69
2023-01-01T10:44:20.279Z,387.22
2023-01-01T10:45:20.343Z,389.24
2023-01-01T10:46:23.659Z,389.01
2023-01-01T10:47:20.531Z,387.67
2023-01-01T10:48:20.611Z,388.11
2023-01-01T10:49:20.678Z,386.55
2023-01-01T10:50:20.755Z,387.22
2023-01-01T10:51:20.847Z,389.92
2023-01-01T10:52:20.895Z,390.60
2023-01-01T10:53:20.992Z,390.60
2023-01-01T10:54:24.101Z,388.79
2023-01-01T10:55:21.162Z,387.22
2023-01-01T10:56:21.228Z,389.92
2023-01-01T10:57:21.299Z,386.55
2023-01-01T10:58:21.379Z,388.11
2023-01-01T10:59:21.487Z,389.69
2023-01-01T11:00:21.604Z,386.11
2023-01-01T11:01:21.664Z,387.22
2023-01-01T11:02:21.916Z,386.55
2023-01-01T11:03:21.940Z,387.67
2023-01-01T11:04:21.835Z,389.46
2023-01-01T11:05:22.815Z,386.55
2023-01-01T11:06:21.980Z,389.92
2023-01-01T11:07:22.076Z,390.37
2023-01-01T11:08:22.158Z,389.69
2023-01-01T11:09:22.262Z,387.89
2023-01-01T11:10:22.347Z,387.89
2023-01-01T11:11:22.440Z,388.56
2023-01-01T11:12:54.638Z,389.69
2023-01-01T11:13:22.602Z,387.22
2023-01-01T11:14:28.670Z,391.05
2023-01-01T11:15:22.752Z,390.14
2023-01-01T11:16:22.938Z,387.89
2023-01-01T11:17:22.929Z,386.55
2023-01-01T11:18:23.007Z,387.22
2023-01-01T11:19:23.071Z,385.22
2023-01-01T11:20:23.157Z,388.56
2023-01-01T11:21:23.237Z,385.89
2023-01-01T11:22:23.323Z,387.89
2023-01-01T11:23:23.405Z,386.77
2023-01-01T11:24:23.493Z,385.00
2023-01-01T11:25:23.602Z,388.11
2023-01-01T11:26:23.687Z,388.11
2023-01-01T11:27:23.791Z,386.11
2023-01-01T11:28:23.913Z,388.11
2023-01-01T11:29:23.949Z,385.00
2023-01-01T11:30:24.031Z,387.44
2023-01-01T11:31:24.212Z,388.79
2023-01-01T11:32:24.206Z,389.24
2023-01-01T11:33:24.299Z,387.22
2023-01-01T11:34:24.387Z,384.12
2023-01-01T11:35:24.472Z,386.33
2023-01-01T11:36:24.538Z,384.78
2023-01-01T11:37:24.633Z,386.55
2023-01-01T11:38:29.728Z,389.01
2023-01-01T11:39:24.838Z,385.44
2023-01-01T11:40:24.901Z,387.67
2023-01-01T11:41:24.997Z,388.34
2023-01-01T11:42:25.067Z,389.01
2023-01-01T11:43:25.162Z,389.69
2023-01-01T11:44:25.252Z,386.11
2023-01-01T11:45:37.167Z,386.33
2023-01-01T11:46:25.491Z,386.55
2023-01-01T11:47:25.483Z,386.33
2023-01-01T11:48:25.585Z,385.66
2023-01-01T11:49:25.693Z,383.03
2023-01-01T11:50:25.740Z,387.89
2023-01-01T11:51:25.822Z,385.66
2023-01-01T11:52:25.897Z,386.11
2023-01-01T11:53:25.994Z,384.56
2023-01-01T11:54:26.085Z,385.89
2023-01-01T11:55:26.189Z,385.89
2023-01-01T11:56:26.254Z,385.22
2023-01-01T11:57:26.351Z,385.00
2023-01-01T11:58:26.431Z,385.44
2023-01-01T11:59:26.506Z,384.12
2023-01-01T12:00:26.575Z,385.44
2023-01-01T12:01:26.682Z,382.59
2023-01-01T12:02:26.780Z,383.46
2023-01-01T12:03:33.109Z,384.12
2023-01-01T12:04:26.910Z,387.00
2023-01-01T12:05:26.967Z,382.81
2023-01-01T12:06:27.061Z,383.46
2023-01-01T12:07:27.236Z,387.00
2023-01-01T12:08:27.204Z,382.59
2023-01-01T12:09:27.294Z,383.46
2023-01-01T12:10:27.384Z,382.81
2023-01-01T12:11:27.570Z,384.56
2023-01-01T12:12:27.558Z,382.59
2023-01-01T12:13:27.616Z,384.34
2023-01-01T12:14:32.562Z,383.90
2023-01-01T12:15:27.777Z,382.15
2023-01-01T12:16:34.178Z,383.46
2023-01-01T12:17:27.957Z,384.78
2023-01-01T12:18:28.027Z,383.24
2023-01-01T12:19:28.121Z,383.24
2023-01-01T12:20:28.199Z,383.68
2023-01-01T12:21:28.422Z,382.81
2023-01-01T12:22:28.385Z,384.78
2023-01-01T12:23:28.436Z,384.56
2023-01-01T12:24:28.534Z,385.00
2023-01-01T12:25:28.595Z,383.68
2023-01-01T12:26:28.676Z,381.72
2023-01-01T12:27:28.757Z,384.34
2023-01-01T12:28:28.837Z,384.78
2023-01-01T12:29:28.911Z,383.46
2023-01-01T12:30:29.010Z,385.22